Time,TemperatureF,DewpointF,PressureIn,WindDirection,WindDirectionDegrees,WindSpeedMPH,WindSpeedGustMPH,Humidity,HourlyPrecipIn,Conditions,Clouds,dailyrainin,SoftwareType,DateUTC
2013-09-14 03:10:00,47.0,47.0,29.05,ENE,67,0.0,1.0,100,0.00,,,0.00,Weather View 32 v70,2013-09-14 08:10:00,
2013-09-14 03:15:00,47.0,47.0,29.05,ENE,67,0.0,5.0,100,0.00,,,0.00,Weather View 32 v70,2013-09-14 08:15:00,
2013-09-14 03:25:00,47.0,47.0,29.05,ENE,67,0.0,5.0,100,0.00,,,0.00,Weather View 32 v70,2013-09-14 08:25:00,
2013-09-14 03:30:00,47.0,47.0,29.05,ENE,67,0.0,5.0,100,0.00,,,0.00,Weather View 32 v70,2013-09-14 08:30:00,
2013-09-14 03:35:00,46.0,46.0,29.05,ENE,67,0.0,5.0,100,0.00,,,0.00,Weather View 32 v70,2013-09-14 08:35:00,
2013-09-14 03:45:00,46.0,46.0,29.06,ENE,67,0.0,5.0,100,0.00,,,0.00,Weather View 32 v70,2013-09-14 08:45:00,
2013-09-14 03:50:00,46.0,46.0,29.06,ENE,67,0.0,5.0,100,0.00,,,0.00,Weather View 32 v70,2013-09-14 08:50:00,
2013-09-14 03:55:00,46.0,46.0,29.06,ENE,67,0.0,5.0,100,0.00,,,0.00,Weather View 32 v70,2013-09-14 08:55:00,
2013-09-14 04:04:00,46.0,46.0,29.06,ENE,67,0.0,5.0,100,0.00,,,0.00,Weather View 32 v70,2013-09-14 09:04:00,
2013-09-14 04:10:00,46.0,46.0,29.06,ENE,67,0.0,5.0,100,0.00,,,0.00,Weather View 32 v70,2013-09-14 09:10:00,
2013-09-14 04:15:00,46.0,45.7,29.06,ENE,67,0.0,4.0,99,0.00,,,0.00,Weather View 32 v70,2013-09-14 09:15:00,
2013-09-14 04:25:00,46.0,45.2,29.06,ENE,67,0.0,3.0,97,0.00,,,0.00,Weather View 32 v70,2013-09-14 09:25:00,
2013-09-14 04:30:00,46.0,45.2,29.06,ENE,67,0.0,3.0,97,0.00,,,0.00,Weather View 32 v70,2013-09-14 09:30:00,
2013-09-14 04:35:00,45.0,43.9,29.06,ENE,67,0.0,3.0,96,0.00,,,0.00,Weather View 32 v70,2013-09-14 09:35:00,
2013-09-14 04:45:00,45.0,43.4,29.06,ENE,67,0.0,3.0,94,0.00,,,0.00,Weather View 32 v70,2013-09-14 09:45:00,
2013-09-14 04:55:00,45.0,43.1,29.07,ENE,67,0.0,3.0,93,0.00,,,0.00,Weather View 32 v70,2013-09-14 09:55:00,
2013-09-14 05:05:00,45.0,42.5,29.07,ENE,67,0.0,3.0,91,0.00,,,0.00,Weather View 32 v70,2013-09-14 10:05:00,
2013-09-14 05:15:00,45.0,41.4,29.07,ENE,67,0.0,3.0,87,0.00,,,0.00,Weather View 32 v70,2013-09-14 10:15:00,
2013-09-14 05:25:00,45.0,40.1,29.07,ENE,67,0.0,2.0,83,0.00,,,0.00,Weather View 32 v70,2013-09-14 10:25:00,
2013-09-14 05:30:00,45.0,40.1,29.07,ENE,67,0.0,2.0,83,0.00,,,0.00,Weather View 32 v70,2013-09-14 10:30:00,
2013-09-14 05:40:00,45.0,40.1,29.08,ENE,67,0.0,2.0,83,0.00,,,0.00,Weather View 32 v70,2013-09-14 10:40:00,
2013-09-14 05:45:00,45.0,39.8,29.08,ENE,67,0.0,2.0,82,0.00,,,0.00,Weather View 32 v70,2013-09-14 10:45:00,
2013-09-14 05:50:00,44.0,38.9,29.08,ENE,67,0.0,2.0,82,0.00,,,0.00,Weather View 32 v70,2013-09-14 10:50:00,
2013-09-14 06:00:00,44.0,38.9,29.08,ENE,67,0.0,2.0,82,0.00,,,0.00,Weather View 32 v70,2013-09-14 11:00:00,
2013-09-14 06:05:00,45.0,36.2,29.08,ENE,67,1.0,3.0,71,0.00,,,0.00,Weather View 32 v70,2013-09-14 11:05:00,
2013-09-14 06:10:00,46.0,32.5,29.07,ENE,67,3.0,5.0,59,0.00,,,0.00,Weather View 32 v70,2013-09-14 11:10:00,
2013-09-14 06:20:00,47.0,30.7,29.06,ENE,67,4.0,5.0,53,0.00,,,0.00,Weather View 32 v70,2013-09-14 11:20:00,
2013-09-14 06:25:00,47.0,31.6,29.06,NE,45,3.0,6.0,55,0.00,,,0.00,Weather View 32 v70,2013-09-14 11:25:00,
2013-09-14 06:30:00,47.0,32.1,29.06,NE,45,3.0,6.0,56,0.00,,,0.00,Weather View 32 v70,2013-09-14 11:30:00,
2013-09-14 06:35:00,47.0,34.2,29.06,ENE,67,4.0,6.0,61,0.00,,,0.00,Weather View 32 v70,2013-09-14 11:35:00,
2013-09-14 06:45:00,47.0,39.8,29.06,ENE,67,4.0,7.0,76,0.00,,,0.00,Weather View 32 v70,2013-09-14 11:45:00,
2013-09-14 06:50:00,47.0,41.1,29.07,ENE,67,4.0,7.0,80,0.00,,,0.00,Weather View 32 v70,2013-09-14 11:50:00,
2013-09-14 06:55:00,47.0,41.8,29.07,East,90,5.0,7.0,82,0.00,,,0.00,Weather View 32 v70,2013-09-14 11:55:00,
2013-09-14 07:05:00,47.0,43.9,29.07,ENE,67,2.0,7.0,89,0.00,,,0.00,Weather View 32 v70,2013-09-14 12:05:00,
2013-09-14 07:10:00,47.0,44.5,29.07,ENE,67,4.0,8.0,91,0.00,,,0.00,Weather View 32 v70,2013-09-14 12:10:00,
2013-09-14 07:20:00,48.0,44.6,29.06,NE,45,3.0,8.0,88,0.00,,,0.00,Weather View 32 v70,2013-09-14 12:20:00,
2013-09-14 07:25:00,49.0,46.8,29.06,NE,45,3.0,8.0,92,0.00,,,0.00,Weather View 32 v70,2013-09-14 12:25:00,
2013-09-14 07:30:00,50.0,47.2,29.05,East,90,0.0,8.0,90,0.00,,,0.00,Weather View 32 v70,2013-09-14 12:30:00,
2013-09-14 07:35:00,50.0,46.3,29.05,East,90,0.0,8.0,87,0.00,,,0.00,Weather View 32 v70,2013-09-14 12:35:00,
2013-09-14 07:45:00,52.0,36.3,29.04,East,90,0.0,8.0,55,0.00,,,0.00,Weather View 32 v70,2013-09-14 12:45:00,
2013-09-14 07:55:00,53.0,53.0,29.03,ENE,67,4.0,8.0,100,0.00,,,0.00,Weather View 32 v70,2013-09-14 12:55:00,
2013-09-14 08:00:00,54.0,52.0,29.03,SSE,157,3.0,8.0,93,0.00,,,0.00,Weather View 32 v70,2013-09-14 13:00:00,
2013-09-14 08:07:00,54.0,52.9,29.03,East,90,4.0,8.0,96,0.00,,,0.00,Weather View 32 v70,2013-09-14 13:07:00,
2013-09-14 08:15:00,55.0,52.4,29.03,ESE,112,0.0,7.0,91,0.00,,,0.00,Weather View 32 v70,2013-09-14 13:15:00,
2013-09-14 08:20:00,55.0,51.8,29.03,South,180,3.0,7.0,89,0.00,,,0.00,Weather View 32 v70,2013-09-14 13:20:00,
2013-09-14 08:25:00,55.0,51.8,29.03,SSW,202,4.0,7.0,89,0.00,,,0.00,Weather View 32 v70,2013-09-14 13:25:00,
2013-09-14 08:35:00,56.0,52.2,29.02,SSW,202,3.0,5.0,87,0.00,,,0.00,Weather View 32 v70,2013-09-14 13:35:00,
2013-09-14 08:40:00,55.0,50.2,29.02,South,180,3.0,7.0,84,0.00,,,0.00,Weather View 32 v70,2013-09-14 13:40:00,
2013-09-14 08:50:00,56.0,50.6,29.02,South,180,4.0,7.0,82,0.00,,,0.00,Weather View 32 v70,2013-09-14 13:50:00,
2013-09-14 09:00:00,57.0,50.2,29.03,ESE,112,4.0,8.0,78,0.00,,,0.00,Weather View 32 v70,2013-09-14 14:00:00,
2013-09-14 09:05:00,57.0,49.1,29.03,South,180,0.0,8.0,75,0.00,,,0.00,Weather View 32 v70,2013-09-14 14:05:00,
2013-09-14 09:10:00,57.0,48.4,29.03,South,180,4.0,8.0,73,0.00,,,0.00,Weather View 32 v70,2013-09-14 14:10:00,
2013-09-14 09:15:00,58.0,49.4,29.03,South,180,3.0,8.0,73,0.00,,,0.00,Weather View 32 v70,2013-09-14 14:15:00,
2013-09-14 09:20:00,58.0,49.0,29.02,South,180,3.0,8.0,72,0.00,,,0.00,Weather View 32 v70,2013-09-14 14:20:00,
2013-09-14 09:30:00,59.0,49.6,29.04,ENE,67,6.0,8.0,71,0.00,,,0.00,Weather View 32 v70,2013-09-14 14:30:00,
2013-09-14 09:35:00,59.0,49.6,29.04,SSE,157,1.0,8.0,71,0.00,,,0.00,Weather View 32 v70,2013-09-14 14:35:00,
2013-09-14 09:40:00,59.0,48.4,29.03,South,180,5.0,10.0,68,0.00,,,0.00,Weather View 32 v70,2013-09-14 14:40:00,
2013-09-14 09:50:00,60.0,50.2,29.03,SSE,157,6.0,10.0,70,0.00,,,0.00,Weather View 32 v70,2013-09-14 14:50:00,
2013-09-14 09:55:00,61.0,49.9,29.03,East,90,3.0,10.0,67,0.00,,,0.00,Weather View 32 v70,2013-09-14 14:55:00,
2013-09-14 10:00:00,60.0,49.0,29.02,South,180,7.0,10.0,67,0.00,,,0.00,Weather View 32 v70,2013-09-14 15:00:00,